sensor_id;sensor_type;location;lat;lon;timestamp;P1;durP1;ratioP1;P2;durP2;ratioP2
21245;SDS011;10781;50.928;4.440;2023-08-08T00:00:43;4.97;;;2.47;;
21245;SDS011;10781;50.928;4.440;2023-08-08T00:03:09;6.22;;;2.67;;
21245;SDS011;10781;50.928;4.440;2023-08-08T00:05:35;4.15;;;2.45;;
21245;SDS011;10781;50.928;4.440;2023-08-08T00:08:00;6.63;;;2.58;;
21245;SDS011;10781;50.928;4.440;2023-08-08T00:10:26;5.18;;;2.50;;
21245;SDS011;10781;50.928;4.440;2023-08-08T00:12:52;4.13;;;2.30;;
21245;SDS011;10781;50.928;4.440;2023-08-08T00:15:17;5.97;;;2.33;;
21245;SDS011;10781;50.928;4.440;2023-08-08T00:17:43;4.72;;;2.80;;
21245;SDS011;10781;50.928;4.440;2023-08-08T00:20:09;6.72;;;2.47;;
21245;SDS011;10781;50.928;4.440;2023-08-08T00:22:35;7.88;;;2.72;;
21245;SDS011;10781;50.928;4.440;2023-08-08T00:25:01;6.25;;;2.88;;
21245;SDS011;10781;50.928;4.440;2023-08-08T00:27:27;6.18;;;2.65;;
21245;SDS011;10781;50.928;4.440;2023-08-08T00:29:52;6.50;;;2.60;;
21245;SDS011;10781;50.928;4.440;2023-08-08T00:32:19;5.82;;;2.72;;
21245;SDS011;10781;50.928;4.440;2023-08-08T00:34:45;6.75;;;2.83;;
21245;SDS011;10781;50.928;4.440;2023-08-08T00:37:11;4.47;;;2.40;;
21245;SDS011;10781;50.928;4.440;2023-08-08T00:39:36;4.95;;;2.78;;
21245;SDS011;10781;50.928;4.440;2023-08-08T00:42:02;4.88;;;2.30;;
21245;SDS011;10781;50.928;4.440;2023-08-08T00:44:28;6.32;;;2.72;;
21245;SDS011;10781;50.928;4.440;2023-08-08T00:46:54;4.50;;;2.50;;
21245;SDS011;10781;50.928;4.440;2023-08-08T00:49:20;6.80;;;2.65;;
21245;SDS011;10781;50.928;4.440;2023-08-08T00:51:46;4.85;;;2.70;;
21245;SDS011;10781;50.928;4.440;2023-08-08T00:54:12;4.05;;;2.60;;
21245;SDS011;10781;50.928;4.440;2023-08-08T00:56:38;6.68;;;2.95;;
21245;SDS011;10781;50.928;4.440;2023-08-08T00:59:04;5.50;;;2.85;;
21245;SDS011;10781;50.928;4.440;2023-08-08T01:01:32;6.38;;;3.20;;
21245;SDS011;10781;50.928;4.440;2023-08-08T01:03:58;6.18;;;2.65;;
21245;SDS011;10781;50.928;4.440;2023-08-08T01:06:29;5.55;;;2.90;;
21245;SDS011;10781;50.928;4.440;2023-08-08T01:11:38;6.63;;;2.97;;
21245;SDS011;10781;50.928;4.440;2023-08-08T01:14:05;8.65;;;2.80;;
21245;SDS011;10781;50.928;4.440;2023-08-08T01:16:33;8.25;;;3.22;;
21245;SDS011;10781;50.928;4.440;2023-08-08T01:18:59;7.80;;;3.33;;
21245;SDS011;10781;50.928;4.440;2023-08-08T01:21:25;5.78;;;2.90;;
21245;SDS011;10781;50.928;4.440;2023-08-08T01:24:01;8.57;;;3.25;;
21245;SDS011;10781;50.928;4.440;2023-08-08T01:26:39;7.85;;;3.00;;
21245;SDS011;10781;50.928;4.440;2023-08-08T01:29:06;4.88;;;3.20;;
21245;SDS011;10781;50.928;4.440;2023-08-08T01:31:31;8.65;;;3.30;;
21245;SDS011;10781;50.928;4.440;2023-08-08T01:33:57;7.30;;;3.10;;
21245;SDS011;10781;50.928;4.440;2023-08-08T01:36:25;8.43;;;3.50;;
21245;SDS011;10781;50.928;4.440;2023-08-08T01:38:56;6.65;;;3.30;;
21245;SDS011;10781;50.928;4.440;2023-08-08T01:41:31;10.30;;;3.58;;
21245;SDS011;10781;50.928;4.440;2023-08-08T01:43:58;7.90;;;3.40;;
21245;SDS011;10781;50.928;4.440;2023-08-08T01:46:25;6.53;;;3.45;;
21245;SDS011;10781;50.928;4.440;2023-08-08T01:48:51;9.07;;;3.58;;
21245;SDS011;10781;50.928;4.440;2023-08-08T01:51:17;9.57;;;3.33;;
21245;SDS011;10781;50.928;4.440;2023-08-08T01:53:43;9.43;;;3.28;;
21245;SDS011;10781;50.928;4.440;2023-08-08T01:56:08;7.85;;;3.25;;
21245;SDS011;10781;50.928;4.440;2023-08-08T01:58:34;6.88;;;3.33;;
21245;SDS011;10781;50.928;4.440;2023-08-08T02:01:00;10.25;;;3.78;;
21245;SDS011;10781;50.928;4.440;2023-08-08T02:03:25;12.13;;;3.75;;
21245;SDS011;10781;50.928;4.440;2023-08-08T02:05:51;8.27;;;3.55;;
21245;SDS011;10781;50.928;4.440;2023-08-08T02:08:16;9.55;;;3.90;;
21245;SDS011;10781;50.928;4.440;2023-08-08T02:10:43;13.18;;;4.07;;
21245;SDS011;10781;50.928;4.440;2023-08-08T02:13:08;8.35;;;3.78;;
21245;SDS011;10781;50.928;4.440;2023-08-08T02:15:34;7.55;;;3.88;;
21245;SDS011;10781;50.928;4.440;2023-08-08T02:18:00;10.18;;;4.20;;
21245;SDS011;10781;50.928;4.440;2023-08-08T02:20:26;7.95;;;3.80;;
21245;SDS011;10781;50.928;4.440;2023-08-08T02:22:52;7.53;;;3.67;;
21245;SDS011;10781;50.928;4.440;2023-08-08T02:25:17;10.13;;;3.67;;
21245;SDS011;10781;50.928;4.440;2023-08-08T02:27:43;13.75;;;4.30;;
21245;SDS011;10781;50.928;4.440;2023-08-08T02:30:09;6.85;;;3.40;;
21245;SDS011;10781;50.928;4.440;2023-08-08T02:32:35;7.85;;;3.90;;
21245;SDS011;10781;50.928;4.440;2023-08-08T02:35:01;10.55;;;3.80;;
21245;SDS011;10781;50.928;4.440;2023-08-08T02:37:26;11.05;;;4.07;;
21245;SDS011;10781;50.928;4.440;2023-08-08T02:39:52;10.27;;;4.18;;
21245;SDS011;10781;50.928;4.440;2023-08-08T02:42:18;12.30;;;4.13;;
21245;SDS011;10781;50.928;4.440;2023-08-08T02:44:43;10.75;;;4.63;;
21245;SDS011;10781;50.928;4.440;2023-08-08T02:47:09;10.60;;;4.25;;
21245;SDS011;10781;50.928;4.440;2023-08-08T02:49:35;13.38;;;3.78;;
21245;SDS011;10781;50.928;4.440;2023-08-08T02:52:00;15.05;;;4.10;;
21245;SDS011;10781;50.928;4.440;2023-08-08T02:54:26;11.07;;;4.25;;
21245;SDS011;10781;50.928;4.440;2023-08-08T02:56:52;10.30;;;4.22;;
21245;SDS011;10781;50.928;4.440;2023-08-08T02:59:17;10.73;;;3.80;;
21245;SDS011;10781;50.928;4.440;2023-08-08T03:01:43;10.88;;;4.30;;
21245;SDS011;10781;50.928;4.440;2023-08-08T03:04:09;9.00;;;4.45;;
21245;SDS011;10781;50.928;4.440;2023-08-08T03:06:34;10.95;;;4.03;;
21245;SDS011;10781;50.928;4.440;2023-08-08T03:09:00;14.07;;;4.38;;
21245;SDS011;10781;50.928;4.440;2023-08-08T03:11:26;13.07;;;4.47;;
21245;SDS011;10781;50.928;4.440;2023-08-08T03:13:52;10.50;;;3.97;;
21245;SDS011;10781;50.928;4.440;2023-08-08T03:16:17;14.13;;;4.03;;
21245;SDS011;10781;50.928;4.440;2023-08-08T03:18:43;11.43;;;4.47;;
21245;SDS011;10781;50.928;4.440;2023-08-08T03:21:08;7.72;;;4.22;;
21245;SDS011;10781;50.928;4.440;2023-08-08T03:23:34;11.60;;;4.38;;
21245;SDS011;10781;50.928;4.440;2023-08-08T03:26:00;11.32;;;4.50;;
21245;SDS011;10781;50.928;4.440;2023-08-08T03:28:25;12.13;;;4.90;;
21245;SDS011;10781;50.928;4.440;2023-08-08T03:30:51;10.73;;;4.22;;
21245;SDS011;10781;50.928;4.440;2023-08-08T03:33:17;12.32;;;4.80;;
21245;SDS011;10781;50.928;4.440;2023-08-08T03:35:42;13.00;;;4.40;;
21245;SDS011;10781;50.928;4.440;2023-08-08T03:38:08;13.13;;;4.68;;
21245;SDS011;10781;50.928;4.440;2023-08-08T03:40:34;10.63;;;4.45;;
21245;SDS011;10781;50.928;4.440;2023-08-08T03:43:00;14.45;;;5.28;;
21245;SDS011;10781;50.928;4.440;2023-08-08T03:45:26;13.85;;;5.65;;
21245;SDS011;10781;50.928;4.440;2023-08-08T03:47:52;15.48;;;5.10;;
21245;SDS011;10781;50.928;4.440;2023-08-08T03:50:18;10.38;;;4.85;;
21245;SDS011;10781;50.928;4.440;2023-08-08T03:52:43;12.93;;;4.97;;
21245;SDS011;10781;50.928;4.440;2023-08-08T03:55:09;11.85;;;5.32;;
21245;SDS011;10781;50.928;4.440;2023-08-08T03:57:35;13.10;;;5.13;;
21245;SDS011;10781;50.928;4.440;2023-08-08T04:00:00;17.00;;;5.15;;
21245;SDS011;10781;50.928;4.440;2023-08-08T04:02:26;14.02;;;4.85;;
21245;SDS011;10781;50.928;4.440;2023-08-08T04:04:53;13.48;;;5.03;;
21245;SDS011;10781;50.928;4.440;2023-08-08T04:07:18;10.80;;;5.15;;
21245;SDS011;10781;50.928;4.440;2023-08-08T04:09:44;13.48;;;5.18;;
21245;SDS011;10781;50.928;4.440;2023-08-08T04:12:10;14.90;;;5.22;;
21245;SDS011;10781;50.928;4.440;2023-08-08T04:14:35;11.57;;;5.35;;
21245;SDS011;10781;50.928;4.440;2023-08-08T04:17:01;14.48;;;5.75;;
21245;SDS011;10781;50.928;4.440;2023-08-08T04:19:27;13.05;;;5.00;;
21245;SDS011;10781;50.928;4.440;2023-08-08T04:21:53;12.35;;;5.75;;
21245;SDS011;10781;50.928;4.440;2023-08-08T04:24:19;14.75;;;5.25;;
21245;SDS011;10781;50.928;4.440;2023-08-08T04:26:44;14.77;;;5.97;;
21245;SDS011;10781;50.928;4.440;2023-08-08T04:29:10;12.25;;;5.60;;
21245;SDS011;10781;50.928;4.440;2023-08-08T04:31:36;14.60;;;5.93;;
21245;SDS011;10781;50.928;4.440;2023-08-08T04:34:01;14.35;;;5.38;;
21245;SDS011;10781;50.928;4.440;2023-08-08T04:36:27;14.50;;;5.57;;
21245;SDS011;10781;50.928;4.440;2023-08-08T04:38:53;15.00;;;5.60;;
21245;SDS011;10781;50.928;4.440;2023-08-08T04:41:19;17.38;;;5.63;;
21245;SDS011;10781;50.928;4.440;2023-08-08T04:43:44;18.05;;;6.20;;
21245;SDS011;10781;50.928;4.440;2023-08-08T04:46:10;13.90;;;5.75;;
21245;SDS011;10781;50.928;4.440;2023-08-08T04:48:37;15.00;;;5.15;;
21245;SDS011;10781;50.928;4.440;2023-08-08T04:51:05;13.10;;;5.65;;
21245;SDS011;10781;50.928;4.440;2023-08-08T04:53:31;11.48;;;5.22;;
21245;SDS011;10781;50.928;4.440;2023-08-08T04:55:57;14.75;;;5.68;;
21245;SDS011;10781;50.928;4.440;2023-08-08T04:58:23;10.13;;;5.38;;
21245;SDS011;10781;50.928;4.440;2023-08-08T05:00:49;12.43;;;5.78;;
21245;SDS011;10781;50.928;4.440;2023-08-08T05:03:16;14.63;;;5.10;;
21245;SDS011;10781;50.928;4.440;2023-08-08T05:05:42;14.13;;;5.50;;
21245;SDS011;10781;50.928;4.440;2023-08-08T05:08:09;13.00;;;5.40;;
21245;SDS011;10781;50.928;4.440;2023-08-08T05:10:36;10.57;;;5.38;;
21245;SDS011;10781;50.928;4.440;2023-08-08T05:13:01;14.43;;;6.05;;
21245;SDS011;10781;50.928;4.440;2023-08-08T05:15:27;16.55;;;5.97;;
21245;SDS011;10781;50.928;4.440;2023-08-08T05:17:52;15.93;;;6.28;;
21245;SDS011;10781;50.928;4.440;2023-08-08T05:20:20;17.25;;;5.60;;
21245;SDS011;10781;50.928;4.440;2023-08-08T05:22:46;13.65;;;5.30;;
21245;SDS011;10781;50.928;4.440;2023-08-08T05:25:12;17.35;;;5.07;;
21245;SDS011;10781;50.928;4.440;2023-08-08T05:27:37;12.60;;;5.80;;
21245;SDS011;10781;50.928;4.440;2023-08-08T05:30:03;13.80;;;5.30;;
21245;SDS011;10781;50.928;4.440;2023-08-08T05:32:30;15.00;;;4.78;;
21245;SDS011;10781;50.928;4.440;2023-08-08T05:34:56;16.83;;;5.22;;
21245;SDS011;10781;50.928;4.440;2023-08-08T05:37:22;12.80;;;4.28;;
21245;SDS011;10781;50.928;4.440;2023-08-08T05:39:51;12.50;;;4.50;;
21245;SDS011;10781;50.928;4.440;2023-08-08T05:42:17;11.75;;;4.68;;
21245;SDS011;10781;50.928;4.440;2023-08-08T05:44:43;9.70;;;4.30;;
21245;SDS011;10781;50.928;4.440;2023-08-08T05:47:09;11.90;;;4.10;;
21245;SDS011;10781;50.928;4.440;2023-08-08T05:49:35;10.80;;;4.13;;
21245;SDS011;10781;50.928;4.440;2023-08-08T05:52:01;11.32;;;3.85;;
21245;SDS011;10781;50.928;4.440;2023-08-08T05:54:27;9.85;;;4.03;;
21245;SDS011;10781;50.928;4.440;2023-08-08T05:56:53;12.05;;;4.07;;
21245;SDS011;10781;50.928;4.440;2023-08-08T05:59:19;9.85;;;3.83;;
21245;SDS011;10781;50.928;4.440;2023-08-08T06:01:44;11.52;;;3.58;;
21245;SDS011;10781;50.928;4.440;2023-08-08T06:04:11;8.80;;;3.50;;
21245;SDS011;10781;50.928;4.440;2023-08-08T06:06:37;10.50;;;3.72;;
21245;SDS011;10781;50.928;4.440;2023-08-08T06:09:03;12.20;;;4.03;;
21245;SDS011;10781;50.928;4.440;2023-08-08T06:11:28;12.38;;;4.10;;
21245;SDS011;10781;50.928;4.440;2023-08-08T06:13:54;12.48;;;3.88;;
21245;SDS011;10781;50.928;4.440;2023-08-08T06:16:20;13.18;;;3.88;;
21245;SDS011;10781;50.928;4.440;2023-08-08T06:18:46;11.93;;;3.92;;
21245;SDS011;10781;50.928;4.440;2023-08-08T06:21:11;10.65;;;3.85;;
21245;SDS011;10781;50.928;4.440;2023-08-08T06:23:37;10.75;;;3.65;;
21245;SDS011;10781;50.928;4.440;2023-08-08T06:26:03;10.50;;;3.70;;
21245;SDS011;10781;50.928;4.440;2023-08-08T06:28:28;9.98;;;3.60;;
21245;SDS011;10781;50.928;4.440;2023-08-08T06:30:55;11.18;;;3.47;;
21245;SDS011;10781;50.928;4.440;2023-08-08T06:33:22;9.60;;;3.20;;
21245;SDS011;10781;50.928;4.440;2023-08-08T06:35:48;9.80;;;3.25;;
21245;SDS011;10781;50.928;4.440;2023-08-08T06:38:14;9.98;;;3.15;;
21245;SDS011;10781;50.928;4.440;2023-08-08T06:40:39;10.95;;;3.20;;
21245;SDS011;10781;50.928;4.440;2023-08-08T06:43:05;7.95;;;3.17;;
21245;SDS011;10781;50.928;4.440;2023-08-08T06:45:31;8.75;;;2.47;;
21245;SDS011;10781;50.928;4.440;2023-08-08T06:47:57;8.60;;;2.63;;
21245;SDS011;10781;50.928;4.440;2023-08-08T06:50:22;4.90;;;2.38;;
21245;SDS011;10781;50.928;4.440;2023-08-08T06:52:49;12.73;;;3.13;;
21245;SDS011;10781;50.928;4.440;2023-08-08T06:55:15;10.35;;;3.10;;
21245;SDS011;10781;50.928;4.440;2023-08-08T06:57:41;6.97;;;2.85;;
21245;SDS011;10781;50.928;4.440;2023-08-08T07:00:07;10.10;;;2.75;;
21245;SDS011;10781;50.928;4.440;2023-08-08T07:02:33;10.30;;;2.80;;
21245;SDS011;10781;50.928;4.440;2023-08-08T07:04:59;10.48;;;2.60;;
21245;SDS011;10781;50.928;4.440;2023-08-08T07:07:25;6.40;;;2.78;;
21245;SDS011;10781;50.928;4.440;2023-08-08T07:09:51;10.88;;;2.58;;
21245;SDS011;10781;50.928;4.440;2023-08-08T07:12:17;11.02;;;2.90;;
21245;SDS011;10781;50.928;4.440;2023-08-08T07:14:42;11.10;;;2.90;;
21245;SDS011;10781;50.928;4.440;2023-08-08T07:17:08;5.53;;;2.92;;
21245;SDS011;10781;50.928;4.440;2023-08-08T07:19:34;10.77;;;3.40;;
21245;SDS011;10781;50.928;4.440;2023-08-08T07:22:01;7.35;;;2.20;;
21245;SDS011;10781;50.928;4.440;2023-08-08T07:24:27;9.18;;;2.67;;
21245;SDS011;10781;50.928;4.440;2023-08-08T07:26:54;9.90;;;2.50;;
21245;SDS011;10781;50.928;4.440;2023-08-08T07:29:21;9.30;;;2.55;;
21245;SDS011;10781;50.928;4.440;2023-08-08T07:31:46;11.88;;;2.78;;
21245;SDS011;10781;50.928;4.440;2023-08-08T07:34:12;9.25;;;2.53;;
21245;SDS011;10781;50.928;4.440;2023-08-08T07:36:38;7.50;;;2.78;;
21245;SDS011;10781;50.928;4.440;2023-08-08T07:39:03;12.07;;;2.88;;
21245;SDS011;10781;50.928;4.440;2023-08-08T07:41:29;11.38;;;2.65;;
21245;SDS011;10781;50.928;4.440;2023-08-08T07:43:55;8.77;;;2.90;;
21245;SDS011;10781;50.928;4.440;2023-08-08T07:46:21;11.77;;;2.67;;
21245;SDS011;10781;50.928;4.440;2023-08-08T07:48:47;11.60;;;2.88;;
21245;SDS011;10781;50.928;4.440;2023-08-08T07:51:13;9.43;;;2.72;;
21245;SDS011;10781;50.928;4.440;2023-08-08T07:53:39;13.18;;;2.58;;
21245;SDS011;10781;50.928;4.440;2023-08-08T07:56:04;5.60;;;2.40;;
21245;SDS011;10781;50.928;4.440;2023-08-08T07:58:31;6.90;;;2.88;;
21245;SDS011;10781;50.928;4.440;2023-08-08T08:00:57;10.90;;;2.88;;
21245;SDS011;10781;50.928;4.440;2023-08-08T08:03:24;9.95;;;2.85;;
21245;SDS011;10781;50.928;4.440;2023-08-08T08:05:51;10.40;;;3.10;;
21245;SDS011;10781;50.928;4.440;2023-08-08T08:08:16;8.05;;;2.67;;
21245;SDS011;10781;50.928;4.440;2023-08-08T08:10:42;12.00;;;3.00;;
21245;SDS011;10781;50.928;4.440;2023-08-08T08:13:08;7.80;;;2.88;;
21245;SDS011;10781;50.928;4.440;2023-08-08T08:15:35;6.75;;;2.97;;
21245;SDS011;10781;50.928;4.440;2023-08-08T08:18:01;7.43;;;2.88;;
21245;SDS011;10781;50.928;4.440;2023-08-08T08:20:27;10.15;;;3.20;;
21245;SDS011;10781;50.928;4.440;2023-08-08T08:22:52;7.15;;;2.80;;
21245;SDS011;10781;50.928;4.440;2023-08-08T08:25:18;5.07;;;2.65;;
21245;SDS011;10781;50.928;4.440;2023-08-08T08:27:43;8.48;;;3.20;;
21245;SDS011;10781;50.928;4.440;2023-08-08T08:30:09;8.80;;;3.28;;
21245;SDS011;10781;50.928;4.440;2023-08-08T08:32:36;9.77;;;3.58;;
21245;SDS011;10781;50.928;4.440;2023-08-08T08:35:02;8.10;;;3.15;;
21245;SDS011;10781;50.928;4.440;2023-08-08T08:37:31;8.05;;;3.30;;
21245;SDS011;10781;50.928;4.440;2023-08-08T08:39:57;11.43;;;3.17;;
21245;SDS011;10781;50.928;4.440;2023-08-08T08:42:23;7.45;;;3.40;;
21245;SDS011;10781;50.928;4.440;2023-08-08T08:44:51;11.77;;;3.60;;
21245;SDS011;10781;50.928;4.440;2023-08-08T08:47:20;8.30;;;3.20;;
21245;SDS011;10781;50.928;4.440;2023-08-08T08:49:46;6.03;;;2.92;;
21245;SDS011;10781;50.928;4.440;2023-08-08T08:52:12;10.60;;;3.53;;
21245;SDS011;10781;50.928;4.440;2023-08-08T08:54:38;6.22;;;2.90;;
21245;SDS011;10781;50.928;4.440;2023-08-08T08:57:04;9.05;;;2.83;;
21245;SDS011;10781;50.928;4.440;2023-08-08T08:59:30;8.68;;;2.97;;
21245;SDS011;10781;50.928;4.440;2023-08-08T09:01:56;7.43;;;2.55;;
21245;SDS011;10781;50.928;4.440;2023-08-08T09:04:22;9.40;;;2.70;;
21245;SDS011;10781;50.928;4.440;2023-08-08T09:06:48;10.27;;;2.70;;
21245;SDS011;10781;50.928;4.440;2023-08-08T09:09:17;11.45;;;2.70;;
21245;SDS011;10781;50.928;4.440;2023-08-08T09:11:47;8.43;;;2.47;;
21245;SDS011;10781;50.928;4.440;2023-08-08T09:14:23;6.45;;;2.40;;
21245;SDS011;10781;50.928;4.440;2023-08-08T09:16:51;6.63;;;2.55;;
21245;SDS011;10781;50.928;4.440;2023-08-08T09:19:22;5.03;;;2.10;;
21245;SDS011;10781;50.928;4.440;2023-08-08T09:21:48;6.10;;;2.33;;
21245;SDS011;10781;50.928;4.440;2023-08-08T09:24:15;10.23;;;2.60;;
21245;SDS011;10781;50.928;4.440;2023-08-08T09:26:41;6.07;;;2.30;;
21245;SDS011;10781;50.928;4.440;2023-08-08T09:29:07;6.45;;;2.17;;
21245;SDS011;10781;50.928;4.440;2023-08-08T09:31:34;8.18;;;2.20;;
21245;SDS011;10781;50.928;4.440;2023-08-08T09:34:00;9.20;;;2.42;;
21245;SDS011;10781;50.928;4.440;2023-08-08T09:36:28;8.70;;;2.10;;
21245;SDS011;10781;50.928;4.440;2023-08-08T09:38:54;7.35;;;2.20;;
21245;SDS011;10781;50.928;4.440;2023-08-08T09:41:21;6.43;;;2.40;;
21245;SDS011;10781;50.928;4.440;2023-08-08T09:43:47;6.10;;;2.72;;
21245;SDS011;10781;50.928;4.440;2023-08-08T09:46:14;9.43;;;2.00;;
21245;SDS011;10781;50.928;4.440;2023-08-08T09:48:41;5.60;;;2.10;;
21245;SDS011;10781;50.928;4.440;2023-08-08T09:51:07;6.93;;;2.03;;
21245;SDS011;10781;50.928;4.440;2023-08-08T09:53:33;7.15;;;1.95;;
21245;SDS011;10781;50.928;4.440;2023-08-08T09:56:00;6.32;;;2.00;;
21245;SDS011;10781;50.928;4.440;2023-08-08T09:58:29;4.10;;;1.85;;
21245;SDS011;10781;50.928;4.440;2023-08-08T10:00:55;5.22;;;2.15;;
21245;SDS011;10781;50.928;4.440;2023-08-08T10:03:21;5.95;;;1.90;;
21245;SDS011;10781;50.928;4.440;2023-08-08T10:05:47;3.97;;;1.95;;
21245;SDS011;10781;50.928;4.440;2023-08-08T10:08:16;8.35;;;2.05;;
21245;SDS011;10781;50.928;4.440;2023-08-08T10:10:44;7.25;;;2.00;;
21245;SDS011;10781;50.928;4.440;2023-08-08T10:13:18;7.68;;;1.88;;
21245;SDS011;10781;50.928;4.440;2023-08-08T10:15:48;3.90;;;1.98;;
21245;SDS011;10781;50.928;4.440;2023-08-08T10:18:14;7.40;;;1.90;;
21245;SDS011;10781;50.928;4.440;2023-08-08T10:20:47;7.97;;;2.08;;
21245;SDS011;10781;50.928;4.440;2023-08-08T10:23:15;4.65;;;1.60;;
21245;SDS011;10781;50.928;4.440;2023-08-08T10:25:45;5.38;;;2.00;;
21245;SDS011;10781;50.928;4.440;2023-08-08T10:28:16;4.18;;;1.73;;
21245;SDS011;10781;50.928;4.440;2023-08-08T10:30:48;5.38;;;1.85;;
21245;SDS011;10781;50.928;4.440;2023-08-08T10:33:21;4.57;;;1.77;;
21245;SDS011;10781;50.928;4.440;2023-08-08T10:36:06;5.88;;;1.67;;
21245;SDS011;10781;50.928;4.440;2023-08-08T10:39:05;3.30;;;1.55;;
21245;SDS011;10781;50.928;4.440;2023-08-08T10:41:25;4.28;;;1.70;;
21245;SDS011;10781;50.928;4.440;2023-08-08T10:43:56;4.57;;;1.75;;
21245;SDS011;10781;50.928;4.440;2023-08-08T10:46:27;5.88;;;2.10;;
21245;SDS011;10781;50.928;4.440;2023-08-08T10:48:57;5.00;;;1.75;;
21245;SDS011;10781;50.928;4.440;2023-08-08T10:51:32;5.00;;;1.75;;
21245;SDS011;10781;50.928;4.440;2023-08-08T10:56:50;4.40;;;1.80;;
21245;SDS011;10781;50.928;4.440;2023-08-08T10:59:21;7.45;;;1.77;;
21245;SDS011;10781;50.928;4.440;2023-08-08T11:01:50;5.65;;;1.77;;
21245;SDS011;10781;50.928;4.440;2023-08-08T11:04:21;4.00;;;1.70;;
21245;SDS011;10781;50.928;4.440;2023-08-08T11:06:52;3.85;;;1.70;;
21245;SDS011;10781;50.928;4.440;2023-08-08T11:09:19;3.22;;;1.30;;
21245;SDS011;10781;50.928;4.440;2023-08-08T11:11:45;3.47;;;1.55;;
21245;SDS011;10781;50.928;4.440;2023-08-08T11:14:11;2.58;;;1.55;;
21245;SDS011;10781;50.928;4.440;2023-08-08T11:16:38;4.82;;;1.45;;
21245;SDS011;10781;50.928;4.440;2023-08-08T11:19:05;2.53;;;1.20;;
21245;SDS011;10781;50.928;4.440;2023-08-08T11:21:33;2.03;;;1.30;;
21245;SDS011;10781;50.928;4.440;2023-08-08T11:24:00;3.17;;;1.08;;
21245;SDS011;10781;50.928;4.440;2023-08-08T11:26:27;5.65;;;1.75;;
21245;SDS011;10781;50.928;4.440;2023-08-08T11:28:53;3.50;;;1.33;;
21245;SDS011;10781;50.928;4.440;2023-08-08T11:31:21;5.28;;;1.60;;
21245;SDS011;10781;50.928;4.440;2023-08-08T11:33:48;4.22;;;1.50;;
21245;SDS011;10781;50.928;4.440;2023-08-08T11:36:14;3.13;;;1.80;;
21245;SDS011;10781;50.928;4.440;2023-08-08T11:38:40;2.58;;;1.50;;
21245;SDS011;10781;50.928;4.440;2023-08-08T11:41:08;1.80;;;1.20;;
21245;SDS011;10781;50.928;4.440;2023-08-08T11:43:38;4.13;;;1.30;;
21245;SDS011;10781;50.928;4.440;2023-08-08T11:46:12;3.58;;;1.40;;
21245;SDS011;10781;50.928;4.440;2023-08-08T11:48:38;3.65;;;1.00;;
21245;SDS011;10781;50.928;4.440;2023-08-08T11:51:04;3.03;;;1.27;;
21245;SDS011;10781;50.928;4.440;2023-08-08T11:53:31;5.63;;;1.50;;
21245;SDS011;10781;50.928;4.440;2023-08-08T11:55:58;4.13;;;1.33;;
21245;SDS011;10781;50.928;4.440;2023-08-08T11:58:25;3.03;;;1.40;;
21245;SDS011;10781;50.928;4.440;2023-08-08T12:00:51;6.22;;;1.35;;
21245;SDS011;10781;50.928;4.440;2023-08-08T12:03:17;3.17;;;1.60;;
21245;SDS011;10781;50.928;4.440;2023-08-08T12:05:47;1.73;;;1.00;;
21245;SDS011;10781;50.928;4.440;2023-08-08T12:08:16;2.78;;;1.20;;
21245;SDS011;10781;50.928;4.440;2023-08-08T12:10:49;1.77;;;1.10;;
21245;SDS011;10781;50.928;4.440;2023-08-08T12:13:21;2.70;;;1.10;;
21245;SDS011;10781;50.928;4.440;2023-08-08T12:15:48;3.42;;;1.48;;
21245;SDS011;10781;50.928;4.440;2023-08-08T12:18:17;2.90;;;1.38;;
21245;SDS011;10781;50.928;4.440;2023-08-08T12:20:44;1.63;;;1.25;;
21245;SDS011;10781;50.928;4.440;2023-08-08T12:23:10;3.40;;;1.33;;
21245;SDS011;10781;50.928;4.440;2023-08-08T12:25:36;15.93;;;15.07;;
21245;SDS011;10781;50.928;4.440;2023-08-08T12:28:02;3.22;;;1.40;;
21245;SDS011;10781;50.928;4.440;2023-08-08T12:30:29;10.27;;;9.55;;
21245;SDS011;10781;50.928;4.440;2023-08-08T12:32:55;2.45;;;1.08;;
21245;SDS011;10781;50.928;4.440;2023-08-08T12:35:21;3.03;;;1.27;;
21245;SDS011;10781;50.928;4.440;2023-08-08T12:37:47;3.25;;;1.10;;
21245;SDS011;10781;50.928;4.440;2023-08-08T12:40:12;3.92;;;1.20;;
21245;SDS011;10781;50.928;4.440;2023-08-08T12:42:38;4.10;;;1.15;;
21245;SDS011;10781;50.928;4.440;2023-08-08T12:45:04;2.78;;;1.15;;
21245;SDS011;10781;50.928;4.440;2023-08-08T12:47:34;2.83;;;1.30;;
21245;SDS011;10781;50.928;4.440;2023-08-08T12:50:03;2.33;;;1.17;;
21245;SDS011;10781;50.928;4.440;2023-08-08T12:52:29;4.05;;;1.27;;
21245;SDS011;10781;50.928;4.440;2023-08-08T12:54:54;3.08;;;1.40;;
21245;SDS011;10781;50.928;4.440;2023-08-08T12:57:20;2.72;;;1.40;;
21245;SDS011;10781;50.928;4.440;2023-08-08T12:59:46;2.65;;;1.20;;
21245;SDS011;10781;50.928;4.440;2023-08-08T13:02:11;3.03;;;1.10;;
21245;SDS011;10781;50.928;4.440;2023-08-08T13:04:37;3.55;;;1.00;;
21245;SDS011;10781;50.928;4.440;2023-08-08T13:07:03;2.40;;;1.25;;
21245;SDS011;10781;50.928;4.440;2023-08-08T13:09:29;1.83;;;1.13;;
21245;SDS011;10781;50.928;4.440;2023-08-08T13:11:55;3.15;;;1.10;;
21245;SDS011;10781;50.928;4.440;2023-08-08T13:14:20;4.47;;;1.05;;
21245;SDS011;10781;50.928;4.440;2023-08-08T13:16:46;1.98;;;1.00;;
21245;SDS011;10781;50.928;4.440;2023-08-08T13:19:12;2.35;;;0.75;;
21245;SDS011;10781;50.928;4.440;2023-08-08T13:21:38;2.83;;;1.17;;
21245;SDS011;10781;50.928;4.440;2023-08-08T13:24:05;2.30;;;1.00;;
21245;SDS011;10781;50.928;4.440;2023-08-08T13:26:31;1.55;;;1.00;;
21245;SDS011;10781;50.928;4.440;2023-08-08T13:28:56;3.45;;;1.00;;
21245;SDS011;10781;50.928;4.440;2023-08-08T13:31:22;2.50;;;1.10;;
21245;SDS011;10781;50.928;4.440;2023-08-08T13:33:48;2.25;;;1.20;;
21245;SDS011;10781;50.928;4.440;2023-08-08T13:36:14;1.88;;;1.10;;
21245;SDS011;10781;50.928;4.440;2023-08-08T13:38:39;1.83;;;1.00;;
21245;SDS011;10781;50.928;4.440;2023-08-08T13:41:05;3.13;;;1.00;;
21245;SDS011;10781;50.928;4.440;2023-08-08T13:43:31;1.52;;;1.10;;
21245;SDS011;10781;50.928;4.440;2023-08-08T13:45:56;3.28;;;1.08;;
21245;SDS011;10781;50.928;4.440;2023-08-08T13:48:22;2.45;;;1.30;;
21245;SDS011;10781;50.928;4.440;2023-08-08T13:50:49;3.20;;;1.42;;
21245;SDS011;10781;50.928;4.440;2023-08-08T13:53:15;5.05;;;1.40;;
21245;SDS011;10781;50.928;4.440;2023-08-08T13:55:41;2.58;;;1.55;;
21245;SDS011;10781;50.928;4.440;2023-08-08T13:58:09;2.22;;;1.30;;
21245;SDS011;10781;50.928;4.440;2023-08-08T14:00:35;2.30;;;1.40;;
21245;SDS011;10781;50.928;4.440;2023-08-08T14:03:01;2.78;;;1.17;;
21245;SDS011;10781;50.928;4.440;2023-08-08T14:05:27;2.50;;;1.10;;
21245;SDS011;10781;50.928;4.440;2023-08-08T14:07:54;3.30;;;1.35;;
21245;SDS011;10781;50.928;4.440;2023-08-08T14:10:19;2.42;;;1.15;;
21245;SDS011;10781;50.928;4.440;2023-08-08T14:12:45;3.05;;;1.20;;
21245;SDS011;10781;50.928;4.440;2023-08-08T14:15:11;2.70;;;1.08;;
21245;SDS011;10781;50.928;4.440;2023-08-08T14:17:36;1.48;;;1.10;;
21245;SDS011;10781;50.928;4.440;2023-08-08T14:20:02;2.70;;;1.30;;
21245;SDS011;10781;50.928;4.440;2023-08-08T14:22:29;4.25;;;1.17;;
21245;SDS011;10781;50.928;4.440;2023-08-08T14:24:54;1.92;;;1.00;;
21245;SDS011;10781;50.928;4.440;2023-08-08T14:27:20;4.25;;;1.48;;
21245;SDS011;10781;50.928;4.440;2023-08-08T14:29:46;2.63;;;1.20;;
21245;SDS011;10781;50.928;4.440;2023-08-08T14:32:11;3.60;;;1.27;;
21245;SDS011;10781;50.928;4.440;2023-08-08T14:34:37;3.35;;;1.50;;
21245;SDS011;10781;50.928;4.440;2023-08-08T14:37:04;2.10;;;1.10;;
21245;SDS011;10781;50.928;4.440;2023-08-08T14:39:30;1.77;;;1.00;;
21245;SDS011;10781;50.928;4.440;2023-08-08T14:41:57;2.70;;;1.08;;
21245;SDS011;10781;50.928;4.440;2023-08-08T14:44:23;1.45;;;1.10;;